Time;durP1;ratioP1;P1;durP2;ratioP2;P2;SDS_P1;SDS_P2;PMS_P1;PMS_P2;Temp;Humidity;BMP_temperature;BMP_pressure;BME280_temperature;BME280_humidity;BME280_pressure;Samples;Min_cycle;Max_cycle;Signal;HPM_P1;HPM_P2
2022/08/09 00:00:15;;;;;;;754.58;697.08;;;;;;;23.51;38.29;102096.97;695720;28;23485;-52
2022/08/09 00:00:36;;;;;;;757.42;699.80;;;;;;;23.47;38.62;102086.63;694640;28;32479;-52
2022/08/09 00:00:57;;;;;;;759.72;702.03;;;;;;;23.48;38.57;102089.16;695445;28;24573;-54
2022/08/09 00:01:18;;;;;;;763.38;705.58;;;;;;;23.48;38.74;102088.31;695686;28;22364;-53
2022/08/09 00:01:42;;;;;;;763.35;705.58;;;;;;;23.47;38.69;102092.16;694947;28;23503;-52
2022/08/09 00:02:05;;;;;;;769.30;711.38;;;;;;;23.45;38.71;102089.63;692733;28;92292;-53
2022/08/09 00:02:26;;;;;;;757.10;699.50;;;;;;;23.43;38.73;102091.75;693680;28;65992;-56
2022/08/09 00:02:47;;;;;;;758.28;700.58;;;;;;;23.43;38.78;102090.91;695595;28;21696;-54
2022/08/09 00:03:08;;;;;;;760.22;702.53;;;;;;;23.42;38.50;102094.75;695140;28;22383;-53
2022/08/09 00:03:31;;;;;;;771.03;713.13;;;;;;;23.41;38.92;102095.84;696407;28;822;-54
2022/08/09 00:03:52;;;;;;;765.47;707.63;;;;;;;23.39;38.79;102085.03;691768;28;45213;-54
2022/08/09 00:04:14;;;;;;;756.28;698.67;;;;;;;23.38;38.85;102092.44;693018;28;22387;-52
2022/08/09 00:04:35;;;;;;;771.88;713.88;;;;;;;23.39;38.72;102087.78;692181;28;44383;-55
2022/08/09 00:04:56;;;;;;;758.97;701.28;;;;;;;23.36;39.10;102085.50;692864;28;22427;-52
2022/08/09 00:05:19;;;;;;;762.15;704.40;;;;;;;23.35;38.93;102089.31;693696;28;23403;-55
2022/08/09 00:05:40;;;;;;;764.28;706.47;;;;;;;23.33;39.20;102095.06;694127;28;69396;-52
2022/08/09 00:06:01;;;;;;;766.50;708.60;;;;;;;23.35;39.09;102092.94;695613;28;21532;-55
2022/08/09 00:06:23;;;;;;;772.50;714.50;;;;;;;23.36;39.00;102082.75;695079;28;41271;-53
2022/08/09 00:06:46;;;;;;;773.45;715.38;;;;;;;23.36;39.11;102088.25;694769;28;4097;-55
2022/08/09 00:07:09;;;;;;;761.92;704.10;;;;;;;23.36;38.98;102094.59;694270;28;44059;-52
2022/08/09 00:07:30;;;;;;;754.95;697.38;;;;;;;23.33;39.29;102089.53;693794;28;69448;-55
2022/08/09 00:07:51;;;;;;;753.72;696.20;;;;;;;23.35;38.99;102094.81;695628;28;22424;-57
2022/08/09 00:08:13;;;;;;;761.20;703.50;;;;;;;23.35;39.00;102089.31;695552;28;25151;-52
2022/08/09 00:08:34;;;;;;;760.83;703.13;;;;;;;23.34;39.13;102088.47;694682;28;46463;-53
2022/08/09 00:08:55;;;;;;;745.83;688.65;;;;;;;23.34;38.87;102088.47;695642;28;22389;-54
2022/08/09 00:09:16;;;;;;;732.38;675.67;;;;;;;23.34;39.07;102091.25;695455;28;22400;-53
2022/08/09 00:09:39;;;;;;;733.20;676.50;;;;;;;23.34;39.23;102094.00;694544;28;45459;-52
2022/08/09 00:10:00;;;;;;;742.63;685.65;;;;;;;23.34;38.96;102090.41;694863;28;45248;-53
2022/08/09 00:10:21;;;;;;;741.78;684.83;;;;;;;23.32;39.09;102089.78;695606;28;20879;-53
2022/08/09 00:10:43;;;;;;;748.88;691.70;;;;;;;23.33;39.09;102095.06;695453;28;23654;-52
2022/08/09 00:11:04;;;;;;;762.30;704.60;;;;;;;23.32;39.34;102095.28;694698;28;46365;-52
2022/08/09 00:11:28;;;;;;;761.53;703.85;;;;;;;23.31;39.09;102096.38;695673;28;21546;-54
2022/08/09 00:11:49;;;;;;;757.90;700.30;;;;;;;23.30;39.38;102097.44;692180;28;91933;-57
2022/08/09 00:12:10;;;;;;;755.15;697.65;;;;;;;23.29;39.13;102096.59;695713;28;23414;-51
2022/08/09 00:12:31;;;;;;;767.25;709.42;;;;;;;23.27;39.25;102095.13;695618;28;22389;-53
2022/08/09 00:12:54;;;;;;;765.50;707.65;;;;;;;23.27;39.23;102097.91;695570;28;23462;-52
2022/08/09 00:13:15;;;;;;;755.65;698.05;;;;;;;23.26;39.30;102097.06;694014;28;69563;-53
2022/08/09 00:13:36;;;;;;;755.33;697.72;;;;;;;23.24;39.49;102101.94;695356;28;22414;-55
2022/08/09 00:13:57;;;;;;;769.13;711.15;;;;;;;23.23;39.09;102097.53;695410;28;21440;-53
2022/08/09 00:14:20;;;;;;;767.03;709.15;;;;;;;23.22;39.34;102095.81;695670;28;21499;-55
2022/08/09 00:14:41;;;;;;;772.20;714.10;;;;;;;23.23;39.42;102102.16;694264;28;62599;-54
2022/08/09 00:15:03;;;;;;;765.25;707.35;;;;;;;23.21;39.45;102099.66;694388;28;46311;-52
2022/08/09 00:15:24;;;;;;;762.42;704.63;;;;;;;23.23;39.17;102097.53;696534;28;905;-51
2022/08/09 00:15:47;;;;;;;756.35;698.75;;;;;;;23.21;39.34;102102.41;695572;28;22400;-55
2022/08/09 00:16:08;;;;;;;751.13;693.55;;;;;;;23.22;39.47;102090.31;694822;28;46331;-55
2022/08/09 00:16:29;;;;;;;752.97;695.45;;;;;;;23.22;39.36;102095.81;691892;28;42809;-56
2022/08/09 00:16:50;;;;;;;757.13;699.53;;;;;;;23.23;39.43;102096.66;666337;28;18603;-55
2022/08/09 00:17:12;;;;;;;758.35;700.53;;;;;;;23.19;39.55;102096.28;689396;28;21932;-55
2022/08/09 00:17:34;;;;;;;754.63;697.03;;;;;;;23.21;39.21;102103.25;689170;28;44145;-54
2022/08/09 00:17:55;;;;;;;763.65;705.75;;;;;;;23.22;39.36;102095.81;686246;28;46315;-55
2022/08/09 00:18:16;;;;;;;766.85;708.92;;;;;;;23.21;39.45;102097.75;687835;28;21326;-52
2022/08/09 00:18:38;;;;;;;754.75;697.20;;;;;;;23.22;39.67;102104.09;689841;28;22394;-55
2022/08/09 00:18:59;;;;;;;760.67;702.92;;;;;;;23.22;39.69;102095.81;690347;28;23483;-50
2022/08/09 00:19:22;;;;;;;756.63;699.03;;;;;;;23.20;39.66;102096.06;693042;28;46297;-53
2022/08/09 00:19:43;;;;;;;754.78;697.17;;;;;;;23.20;39.37;102097.97;694795;28;46333;-50
2022/08/09 00:20:05;;;;;;;762.65;704.75;;;;;;;23.19;39.61;102101.78;695329;28;22325;-51
2022/08/09 00:20:26;;;;;;;757.95;700.22;;;;;;;23.19;39.67;102088.00;693948;28;69396;-51
2022/08/09 00:20:48;;;;;;;761.60;703.80;;;;;;;23.19;39.67;102101.78;695582;28;21152;-57
2022/08/09 00:21:10;;;;;;;750.00;692.53;;;;;;;23.18;39.53;102097.34;694747;28;46339;-56
2022/08/09 00:21:33;;;;;;;754.78;697.17;;;;;;;23.17;39.46;102098.44;696250;28;1867;-53
2022/08/09 00:21:54;;;;;;;757.47;699.67;;;;;;;23.17;39.39;102101.19;694364;28;23498;-52
2022/08/09 00:22:17;;;;;;;758.13;700.33;;;;;;;23.17;39.60;102092.91;695290;28;22449;-51
2022/08/09 00:22:38;;;;;;;752.25;694.63;;;;;;;23.16;39.40;102097.56;692481;28;92446;-55
2022/08/09 00:23:00;;;;;;;758.72;701.00;;;;;;;23.18;39.63;102094.59;695374;28;22386;-55
2022/08/09 00:23:21;;;;;;;770.85;712.90;;;;;;;23.18;39.55;102100.09;696146;28;1795;-50
2022/08/09 00:23:43;;;;;;;768.47;710.58;;;;;;;23.17;39.62;102096.50;695630;28;22449;-54
2022/08/09 00:24:05;;;;;;;759.97;702.23;;;;;;;23.18;39.68;102098.22;693737;28;69446;-53
2022/08/09 00:24:30;;;;;;;750.70;693.30;;;;;;;23.18;39.54;102103.72;695006;28;36354;-57
2022/08/09 00:24:52;;;;;;;755.15;697.55;;;;;;;23.19;39.41;102096.28;693875;28;69415;-56
2022/08/09 00:25:14;;;;;;;763.45;705.67;;;;;;;23.19;39.62;102096.28;695477;28;22413;-51
2022/08/09 00:25:35;;;;;;;760.57;702.87;;;;;;;23.19;39.54;102093.53;693968;28;69495;-54
2022/08/09 00:25:56;;;;;;;765.75;707.85;;;;;;;23.18;39.59;102080.81;694106;28;45315;-51
2022/08/09 00:26:18;;;;;;;762.83;705.03;;;;;;;23.21;39.73;102088.63;695540;28;23443;-56
2022/08/09 00:26:40;;;;;;;763.88;706.10;;;;;;;23.20;39.65;102090.53;694656;28;21532;-53
2022/08/09 00:27:01;;;;;;;758.90;701.10;;;;;;;23.21;39.45;102097.75;694204;28;45237;-54
2022/08/09 00:27:22;;;;;;;764.45;706.47;;;;;;;23.22;39.57;102090.31;691621;28;46370;-53
2022/08/09 00:27:43;;;;;;;758.03;700.35;;;;;;;23.23;39.60;102093.91;692623;28;23129;-55
2022/08/09 00:28:05;;;;;;;748.35;690.95;;;;;;;23.23;39.48;102085.63;689415;28;22393;-54
2022/08/09 00:28:27;;;;;;;760.00;702.33;;;;;;;23.23;39.67;102088.38;689120;28;44443;-53
2022/08/09 00:28:49;;;;;;;756.25;698.63;;;;;;;23.23;39.62;102094.75;689055;28;46406;-53
2022/08/09 00:29:10;;;;;;;751.45;694.05;;;;;;;23.18;39.31;102078.91;690395;28;22391;-56
2022/08/09 00:29:32;;;;;;;759.65;701.97;;;;;;;23.23;39.75;102092.00;692104;28;22400;-51
2022/08/09 00:29:53;;;;;;;755.42;697.83;;;;;;;23.25;39.56;102089.84;693016;28;46330;-53
2022/08/09 00:30:14;;;;;;;751.53;694.03;;;;;;;23.25;39.54;102089.84;697432;28;22303;-55
2022/08/09 00:30:35;;;;;;;758.53;700.83;;;;;;;23.26;39.39;102086.03;694683;28;44865;-51
2022/08/09 00:30:57;;;;;;;750.00;692.53;;;;;;;23.27;39.52;102087.69;695518;28;23423;-54
2022/08/09 00:31:20;;;;;;;749.38;692.00;;;;;;;23.30;39.68;102089.16;695632;28;21529;-56
2022/08/09 00:31:41;;;;;;;751.53;694.03;;;;;;;23.31;39.39;102086.19;693198;28;69418;-53
2022/08/09 00:32:03;;;;;;;755.15;697.55;;;;;;;23.33;39.40;102091.47;694713;28;45317;-54
2022/08/09 00:32:25;;;;;;;745.17;687.88;;;;;;;23.35;39.42;102086.56;695479;28;22413;-53
2022/08/09 00:32:48;;;;;;;754.22;696.63;;;;;;;23.36;39.42;102086.31;693462;28;69149;-55
2022/08/09 00:33:09;;;;;;;751.38;693.88;;;;;;;23.39;39.47;102085.88;694811;28;45110;-55
2022/08/09 00:33:31;;;;;;;748.58;691.20;;;;;;;23.39;39.37;102088.63;695607;28;22434;-54
2022/08/09 00:33:53;;;;;;;744.00;686.70;;;;;;;23.41;39.33;102085.63;694660;28;44369;-55
2022/08/09 00:34:15;;;;;;;750.30;692.80;;;;;;;23.42;39.30;102089.22;694898;28;44251;-51
2022/08/09 00:34:37;;;;;;;739.08;681.97;;;;;;;23.41;39.35;102091.16;693745;28;68444;-55
2022/08/09 00:34:58;;;;;;;740.03;682.85;;;;;;;23.40;39.26;102081.19;696311;28;905;-57
2022/08/09 00:35:20;;;;;;;742.15;684.90;;;;;;;23.39;39.44;102087.78;694480;28;46317;-56
2022/08/09 00:35:41;;;;;;;748.20;690.80;;;;;;;23.39;39.49;102085.88;695571;28;22429;-56
2022/08/09 00:36:05;;;;;;;755.90;698.25;;;;;;;23.38;39.42;102084.16;695541;28;21538;-53
2022/08/09 00:36:26;;;;;;;749.42;692.03;;;;;;;23.37;39.25;102084.44;693064;28;92218;-54
2022/08/09 00:36:47;;;;;;;751.63;694.15;;;;;;;23.39;39.55;102085.03;694531;28;22401;-55
2022/08/09 00:37:08;;;;;;;754.40;696.65;;;;;;;23.37;39.43;102085.25;694873;28;23477;-57
2022/08/09 00:37:32;;;;;;;753.65;696.15;;;;;;;23.39;39.45;102090.53;691893;28;46320;-53
2022/08/09 00:37:53;;;;;;;750.38;692.88;;;;;;;23.39;39.56;102087.78;691248;28;67467;-50
2022/08/09 00:38:15;;;;;;;753.05;695.47;;;;;;;23.39;39.66;102085.03;695019;28;21527;-55
2022/08/09 00:38:36;;;;;;;737.97;680.85;;;;;;;23.38;39.47;102089.69;694705;28;44399;-55
2022/08/09 00:38:57;;;;;;;743.30;686.00;;;;;;;23.37;39.27;102078.91;695411;28;21519;-53
2022/08/09 00:39:19;;;;;;;748.20;690.80;;;;;;;23.36;39.43;102079.97;692714;28;21466;-55
2022/08/09 00:39:41;;;;;;;748.90;691.50;;;;;;;23.36;39.48;102082.75;691697;28;44386;-57
2022/08/09 00:40:03;;;;;;;747.30;689.85;;;;;;;23.33;39.62;102081.28;691805;28;46317;-56
2022/08/09 00:40:24;;;;;;;747.58;690.15;;;;;;;23.32;39.42;102085.13;693328;28;30607;-52
2022/08/09 00:40:46;;;;;;;758.83;701.05;;;;;;;23.30;39.62;102078.16;695224;28;23770;-54
2022/08/09 00:41:07;;;;;;;751.10;693.50;;;;;;;23.27;39.57;102079.44;692906;28;45230;-55
2022/08/09 00:41:29;;;;;;;737.70;680.55;;;;;;;23.29;39.69;102081.97;695502;28;21417;-54
2022/08/09 00:41:51;;;;;;;735.10;678.03;;;;;;;23.27;39.65;102076.69;693922;28;46348;-56
2022/08/09 00:42:12;;;;;;;739.33;682.15;;;;;;;23.27;39.96;102082.19;694614;28;46294;-57
2022/08/09 00:42:33;;;;;;;737.00;679.80;;;;;;;23.27;39.89;102082.19;695381;28;22399;-55
2022/08/09 00:42:55;;;;;;;742.95;685.55;;;;;;;23.27;39.69;102084.13;692524;28;22395;-53
2022/08/09 00:43:17;;;;;;;745.10;687.78;;;;;;;23.27;39.96;102082.19;689717;28;45194;-55
2022/08/09 00:43:39;;;;;;;746.70;689.30;;;;;;;23.27;39.54;102090.47;690110;28;45248;-54
2022/08/09 00:44:00;;;;;;;743.60;686.30;;;;;;;23.26;39.81;102086.03;691792;28;46377;-52
2022/08/09 00:44:23;;;;;;;750.15;692.65;;;;;;;23.26;39.78;102080.53;691925;28;44400;-54
2022/08/09 00:44:44;;;;;;;756.60;699.00;;;;;;;23.26;39.81;102077.78;692659;28;44153;-55
2022/08/09 00:45:06;;;;;;;760.78;702.90;;;;;;;23.24;40.12;102082.66;695093;28;22166;-56
2022/08/09 00:45:27;;;;;;;756.65;698.95;;;;;;;23.26;39.85;102082.41;694559;28;46329;-57
2022/08/09 00:45:50;;;;;;;769.50;711.38;;;;;;;23.25;39.73;102089.03;692359;28;23489;-54
2022/08/09 00:46:11;;;;;;;815.28;755.55;;;;;;;23.24;39.96;102081.81;691030;28;70220;-54
2022/08/09 00:46:33;;;;;;;764.83;706.88;;;;;;;23.23;39.79;102080.97;692627;28;21540;-55
2022/08/09 00:46:54;;;;;;;751.60;694.08;;;;;;;23.23;39.93;102086.50;692118;28;4164;-59
2022/08/09 00:47:16;;;;;;;754.10;696.47;;;;;;;23.21;39.76;102083.09;692289;28;23265;-54
2022/08/09 00:47:38;;;;;;;744.47;687.17;;;;;;;23.20;40.05;102082.28;692369;28;46297;-55
2022/08/09 00:47:59;;;;;;;759.05;701.38;;;;;;;23.21;39.89;102092.25;692696;28;22403;-55
2022/08/09 00:48:20;;;;;;;759.97;702.28;;;;;;;23.20;40.06;102086.94;691728;28;46680;-55
2022/08/09 00:48:41;;;;;;;757.78;700.08;;;;;;;23.19;39.94;102091.59;693129;28;23533;-55
2022/08/09 00:49:03;;;;;;;758.38;700.67;;;;;;;23.17;40.25;102077.22;695318;28;21542;-56
2022/08/09 00:49:25;;;;;;;754.22;696.63;;;;;;;23.17;40.02;102093.75;694587;28;46324;-56
2022/08/09 00:49:47;;;;;;;750.40;692.90;;;;;;;23.18;40.06;102092.69;695466;28;22386;-57
2022/08/09 00:50:09;;;;;;;754.63;697.03;;;;;;;23.17;40.01;102092.91;693880;28;69640;-54
2022/08/09 00:50:30;;;;;;;749.83;692.33;;;;;;;23.18;40.09;102083.56;694590;28;46316;-53
2022/08/09 00:50:52;;;;;;;758.55;700.83;;;;;;;23.18;39.92;102089.06;695443;28;21722;-53
2022/08/09 00:51:15;;;;;;;772.47;714.40;;;;;;;23.18;39.96;102087.19;694496;28;44374;-60
2022/08/09 00:51:37;;;;;;;765.30;707.40;;;;;;;23.18;39.83;102095.44;693881;28;69435;-55
2022/08/09 00:51:58;;;;;;;753.45;695.90;;;;;;;23.18;40.00;102094.59;694619;28;24505;-52
2022/08/09 00:52:21;;;;;;;761.28;703.45;;;;;;;23.19;40.15;102090.78;694644;28;46468;-55
2022/08/09 00:52:44;;;;;;;757.20;699.45;;;;;;;23.19;40.21;102086.09;693933;28;69415;-54
2022/08/09 00:53:06;;;;;;;757.10;699.40;;;;;;;23.19;40.13;102090.78;693925;28;46385;-55
2022/08/09 00:53:27;;;;;;;753.47;695.88;;;;;;;23.17;40.05;102096.50;694537;28;44369;-53
2022/08/09 00:53:48;;;;;;;755.72;698.10;;;;;;;23.18;40.16;102092.69;694126;28;44794;-55
2022/08/09 00:54:11;;;;;;;739.90;682.70;;;;;;;23.18;40.18;102092.69;695354;28;22400;-54
2022/08/09 00:54:32;;;;;;;745.20;687.90;;;;;;;23.20;40.30;102097.97;694529;28;44162;-51
2022/08/09 00:54:54;;;;;;;750.60;693.13;;;;;;;23.19;40.10;102094.34;694308;28;46315;-55
2022/08/09 00:55:15;;;;;;;753.08;695.47;;;;;;;23.21;40.32;102094.13;695006;28;23396;-55
2022/08/09 00:55:36;;;;;;;754.20;696.60;;;;;;;23.20;40.09;102087.78;695265;28;23549;-51
2022/08/09 00:55:58;;;;;;;745.58;688.25;;;;;;;23.19;40.41;102096.28;693810;28;46249;-51
2022/08/09 00:56:20;;;;;;;752.30;694.80;;;;;;;23.20;40.18;102092.47;694770;28;44385;-53
2022/08/09 00:56:41;;;;;;;745.22;687.92;;;;;;;23.21;40.14;102088.63;691848;28;21841;-56
2022/08/09 00:57:02;;;;;;;745.65;688.17;;;;;;;23.16;40.09;102093.97;692075;28;23417;-53
2022/08/09 00:57:24;;;;;;;750.95;693.40;;;;;;;23.15;40.33;102090.41;691418;28;46268;-53
2022/08/09 00:57:46;;;;;;;754.28;696.70;;;;;;;23.15;40.46;102098.66;692633;28;21541;-56
2022/08/09 00:58:07;;;;;;;754.65;697.05;;;;;;;23.13;40.32;102087.00;691725;28;46309;-53
2022/08/09 00:58:30;;;;;;;757.50;699.80;;;;;;;23.16;40.30;102089.31;692317;28;44243;-51
2022/08/09 00:58:51;;;;;;;749.97;692.50;;;;;;;23.16;40.24;102085.72;694477;28;46468;-57
2022/08/09 00:59:12;;;;;;;748.97;691.47;;;;;;;23.18;40.19;102089.06;695524;28;21297;-51
2022/08/09 00:59:34;;;;;;;749.55;692.13;;;;;;;23.17;40.15;102087.41;695456;28;23748;-52
2022/08/09 00:59:57;;;;;;;761.70;703.95;;;;;;;23.17;40.31;102087.41;693930;28;69267;-51
2022/08/09 01:00:18;;;;;;;753.72;696.20;;;;;;;23.16;40.37;102078.28;694611;28;44370;-53
2022/08/09 01:00:41;;;;;;;763.55;705.83;;;;;;;23.16;40.33;102091.22;694668;28;46436;-53
2022/08/09 01:01:09;;;;;;;762.08;704.38;;;;;;;23.15;40.35;102079.38;694648;28;45294;-52
2022/08/09 01:01:34;;;;;;;772.70;714.70;;;;;;;23.18;40.48;102089.06;691371;28;137804;-51
2022/08/09 01:01:57;;;;;;;773.03;714.97;;;;;;;23.17;40.40;102082.72;690510;28;138744;-55
2022/08/09 01:02:20;;;;;;;770.85;712.88;;;;;;;23.17;40.24;102079.16;694096;28;68053;-54
2022/08/09 01:02:47;;;;;;;767.15;709.33;;;;;;;23.17;40.17;102087.41;694602;28;46995;-54
2022/08/09 01:03:14;;;;;;;772.25;714.25;;;;;;;23.19;40.28;102090.78;688555;28;137693;-55
2022/08/09 01:03:41;;;;;;;779.60;721.40;;;;;;;23.18;40.27;102086.31;685224;28;137370;-55
2022/08/09 01:04:07;;;;;;;785.50;727.10;;;;;;;23.19;40.32;102085.25;685844;28;136322;-56
2022/08/09 01:04:33;;;;;;;776.55;718.40;;;;;;;23.18;40.26;102078.06;685854;28;138647;-53
2022/08/09 01:05:09;;;;;;;768.92;711.03;;;;;;;23.16;40.42;102083.78;689313;28;82176;-53
2022/08/09 01:05:37;;;;;;;778.47;720.28;;;;;;;23.18;40.07;102087.19;690447;28;138728;-52
2022/08/09 01:06:02;;;;;;;772.88;714.85;;;;;;;23.20;40.40;102090.53;691331;28;138024;-54
2022/08/09 01:06:34;;;;;;;774.55;716.55;;;;;;;23.20;40.17;102082.28;691525;28;138182;-54
2022/08/09 01:07:00;;;;;;;781.53;723.28;;;;;;;23.22;40.34;102082.03;690178;28;137637;-54
2022/08/09 01:07:27;;;;;;;779.93;721.70;;;;;;;23.22;40.53;102084.81;691337;28;137190;-55
2022/08/09 01:07:53;;;;;;;774.72;716.53;;;;;;;23.25;40.31;102087.09;691529;28;136558;-55
2022/08/09 01:08:21;;;;;;;756.00;698.40;;;;;;;23.26;40.15;102072.25;692574;28;107311;-54
2022/08/09 01:08:50;;;;;;;745.05;687.65;;;;;;;23.27;40.27;102079.44;693775;28;138077;-51
2022/08/09 01:09:16;;;;;;;738.88;681.67;;;;;;;23.27;40.26;102082.19;694215;28;135629;-54
2022/08/09 01:09:42;;;;;;;739.88;682.75;;;;;;;23.29;40.11;102084.72;694261;28;138027;-55
2022/08/09 01:10:09;;;;;;;735.03;677.88;;;;;;;23.30;40.28;102084.50;693768;28;136201;-55
2022/08/09 01:10:37;;;;;;;735.28;678.22;;;;;;;23.30;40.29;102086.41;691509;28;136366;-53
2022/08/09 01:11:08;;;;;;;729.70;672.75;;;;;;;23.31;40.16;102085.34;690789;28;137632;-54
2022/08/09 01:11:38;;;;;;;738.70;681.58;;;;;;;23.31;40.04;102088.09;691460;28;137519;-53
2022/08/09 01:12:04;;;;;;;748.97;691.53;;;;;;;23.25;40.25;102076.06;689804;28;158074;-52
2022/08/09 01:12:29;;;;;;;742.30;685.00;;;;;;;23.28;40.17;102089.41;691443;28;138023;-53
2022/08/09 01:12:54;;;;;;;741.00;683.83;;;;;;;23.28;40.51;102086.63;693024;28;92102;-55
2022/08/09 01:13:19;;;;;;;741.33;684.08;;;;;;;23.28;40.22;102088.56;692181;28;115107;-49
2022/08/09 01:13:47;;;;;;;744.15;686.95;;;;;;;23.24;40.46;102074.38;689535;28;114903;-50
2022/08/09 01:14:13;;;;;;;745.72;688.42;;;;;;;23.28;40.26;102086.63;688657;28;137610;-51
2022/08/09 01:14:38;;;;;;;743.92;686.70;;;;;;;23.29;40.38;102090.22;688753;28;137835;-51
2022/08/09 01:15:02;;;;;;;749.03;691.58;;;;;;;23.27;40.33;102079.44;690578;28;115285;-55
2022/08/09 01:15:24;;;;;;;752.42;694.95;;;;;;;23.27;40.21;102082.19;692897;28;92241;-52
2022/08/09 01:15:47;;;;;;;754.65;697.22;;;;;;;23.27;40.27;102084.13;694360;28;46285;-55
2022/08/09 01:16:10;;;;;;;747.92;690.60;;;;;;;23.27;40.30;102086.88;693814;28;67271;-54
2022/08/09 01:16:35;;;;;;;753.17;695.67;;;;;;;23.26;40.44;102077.78;694504;28;45235;-52
2022/08/09 01:17:02;;;;;;;746.58;689.15;;;;;;;23.27;40.30;102086.88;690950;28;113181;-51
2022/08/09 01:17:27;;;;;;;749.25;691.65;;;;;;;23.26;40.36;102077.78;691299;28;136240;-53
2022/08/09 01:17:52;;;;;;;747.30;689.95;;;;;;;23.26;40.22;102090.69;686546;28;113354;-52
2022/08/09 01:18:17;;;;;;;756.22;698.65;;;;;;;23.25;40.36;102086.25;686539;28;115201;-55
2022/08/09 01:18:41;;;;;;;757.75;700.10;;;;;;;23.22;40.57;102084.81;687384;28;92351;-55
2022/08/09 01:19:26;;;;;;;754.00;696.45;;;;;;;23.21;40.49;102083.97;687341;28;93240;-54
2022/08/09 01:19:52;;;;;;;741.97;684.78;;;;;;;23.22;40.25;102084.81;690201;28;137721;-55
2022/08/09 01:20:20;;;;;;;752.85;695.33;;;;;;;23.22;40.31;102087.56;691485;28;138037;-57
2022/08/09 01:20:47;;;;;;;752.75;695.25;;;;;;;23.24;40.41;102081.81;691452;28;137869;-55
2022/08/09 01:21:18;;;;;;;749.72;692.30;;;;;;;23.24;40.30;102076.31;691412;28;136263;-55
2022/08/09 01:21:45;;;;;;;753.35;695.85;;;;;;;23.23;40.67;102086.50;690548;28;138153;-53
2022/08/09 01:22:43;;;;;;;746.35;689.00;;;;;;;23.24;40.38;102085.41;691448;28;138046;-55
2022/08/09 01:23:19;;;;;;;743.55;686.25;;;;;;;23.24;40.43;102085.41;681098;28;137662;-53
2022/08/09 01:23:52;;;;;;;748.08;690.70;;;;;;;23.21;40.48;102083.09;683099;28;137630;-53
2022/08/09 01:24:20;;;;;;;738.00;680.90;;;;;;;23.22;40.49;102087.56;690313;28;137647;-51
2022/08/09 01:24:49;;;;;;;747.03;689.58;;;;;;;23.21;40.57;102086.72;691957;28;136162;-58
2022/08/09 01:25:24;;;;;;;730.13;673.33;;;;;;;23.22;40.47;102084.81;687831;28;160782;-52
2022/08/09 01:25:56;;;;;;;739.55;682.55;;;;;;;23.23;40.25;102083.75;688776;28;137710;-55
2022/08/09 01:26:40;;;;;;;737.25;680.15;;;;;;;23.24;40.30;102088.16;689067;28;137190;-52
2022/08/09 01:27:05;;;;;;;749.00;691.45;;;;;;;23.24;40.22;102082.66;689562;28;158004;-53
2022/08/09 01:27:27;;;;;;;738.03;680.88;;;;;;;23.25;40.51;102091.78;692208;28;115172;-54
2022/08/09 01:27:50;;;;;;;745.85;688.58;;;;;;;23.24;40.46;102079.06;694636;28;44201;-56
2022/08/09 01:28:12;;;;;;;745.45;688.15;;;;;;;23.25;40.40;102089.84;690524;28;69434;-51
2022/08/09 01:28:35;;;;;;;748.25;690.85;;;;;;;23.26;40.22;102086.03;690858;28;69409;-52
2022/08/09 01:28:57;;;;;;;745.47;688.08;;;;;;;23.27;40.56;102086.88;691652;28;46348;-55
2022/08/09 01:29:30;;;;;;;748.83;691.42;;;;;;;23.24;40.52;102082.66;691687;28;46232;-55
2022/08/09 01:30:05;;;;;;;747.30;689.88;;;;;;;23.27;40.47;102093.22;688532;28;137167;-52
2022/08/09 01:30:28;;;;;;;736.78;679.67;;;;;;;23.27;40.37;102084.94;689211;28;125149;-54
2022/08/09 01:30:51;;;;;;;743.22;685.92;;;;;;;23.28;40.44;102088.56;691089;28;67268;-53
2022/08/09 01:31:14;;;;;;;740.55;683.33;;;;;;;23.28;40.29;102085.81;692218;28;68029;-55
2022/08/09 01:31:36;;;;;;;740.80;683.53;;;;;;;23.29;40.38;102090.22;693756;28;69102;-51
2022/08/09 01:32:01;;;;;;;740.20;683.00;;;;;;;23.28;40.20;102086.63;693856;28;44562;-53
2022/08/09 01:32:30;;;;;;;741.95;684.70;;;;;;;23.28;40.29;102083.06;692193;28;113722;-57
2022/08/09 01:32:53;;;;;;;743.58;686.25;;;;;;;23.27;40.39;102092.38;691145;28;138591;-54
2022/08/09 01:33:16;;;;;;;748.22;690.83;;;;;;;23.26;40.46;102087.94;694655;28;44429;-56
2022/08/09 01:33:40;;;;;;;740.75;683.60;;;;;;;23.27;40.41;102084.94;693877;28;67478;-54
2022/08/09 01:34:03;;;;;;;746.33;689.00;;;;;;;23.27;40.25;102084.94;692409;28;92296;-54
2022/08/09 01:34:25;;;;;;;747.28;689.90;;;;;;;23.28;40.38;102086.63;693533;28;69307;-52
2022/08/09 01:34:47;;;;;;;754.88;697.28;;;;;;;23.28;40.44;102083.88;694519;28;46058;-53
2022/08/09 01:35:13;;;;;;;750.53;692.97;;;;;;;23.28;40.41;102085.81;693943;28;46259;-56
2022/08/09 01:35:38;;;;;;;750.15;692.63;;;;;;;23.28;40.43;102081.13;691171;28;138091;-57
2022/08/09 01:36:03;;;;;;;753.95;696.35;;;;;;;23.29;40.27;102082.81;691823;28;113652;-54
2022/08/09 01:36:26;;;;;;;743.33;685.97;;;;;;;23.30;40.27;102087.25;691846;28;117388;-57
2022/08/09 01:36:48;;;;;;;757.03;699.25;;;;;;;23.31;40.40;102085.34;692774;28;67460;-55
2022/08/09 01:37:12;;;;;;;756.03;698.22;;;;;;;23.30;40.29;102081.72;692877;28;69386;-56
2022/08/09 01:37:34;;;;;;;748.00;690.53;;;;;;;23.32;40.35;102081.50;693611;28;69234;-54
2022/08/09 01:37:57;;;;;;;753.38;695.75;;;;;;;23.32;40.38;102079.59;694290;28;46212;-55
2022/08/09 01:38:23;;;;;;;746.38;689.08;;;;;;;23.33;40.48;102080.44;693688;28;69435;-56
2022/08/09 01:38:46;;;;;;;743.50;686.20;;;;;;;23.33;40.31;102080.44;691045;28;137886;-55
2022/08/09 01:39:07;;;;;;;742.83;685.53;;;;;;;23.33;40.31;102083.19;690856;28;69303;-57
2022/08/09 01:39:29;;;;;;;750.03;692.63;;;;;;;23.31;40.44;102077.91;691751;28;44399;-52
2022/08/09 01:39:54;;;;;;;751.53;694.03;;;;;;;23.32;40.49;102082.38;691451;28;46284;-57
2022/08/09 01:40:15;;;;;;;742.70;685.40;;;;;;;23.30;40.17;102081.72;689331;28;115179;-55
2022/08/09 01:40:41;;;;;;;739.33;682.05;;;;;;;23.32;40.21;102087.88;692270;28;21533;-55
2022/08/09 01:41:08;;;;;;;741.05;683.80;;;;;;;23.30;40.19;102081.72;689463;28;136542;-54
2022/08/09 01:41:32;;;;;;;748.88;691.40;;;;;;;23.31;40.23;102085.34;691759;28;138705;-53
2022/08/09 01:41:54;;;;;;;742.45;685.25;;;;;;;23.30;40.40;102090.00;694922;28;90706;-51
2022/08/09 01:42:16;;;;;;;752.55;695.05;;;;;;;23.30;40.34;102084.50;697483;28;44388;-53
2022/08/09 01:42:38;;;;;;;756.95;699.25;;;;;;;23.30;40.35;102087.25;696318;28;46349;-52
2022/08/09 01:42:59;;;;;;;748.08;690.58;;;;;;;23.30;40.27;102086.41;695074;28;22389;-56
2022/08/09 01:43:22;;;;;;;753.22;695.67;;;;;;;23.29;40.64;102087.47;695870;28;47105;-57
2022/08/09 01:43:45;;;;;;;753.22;695.67;;;;;;;23.30;40.53;102092.75;696317;28;69410;-53
2022/08/09 01:44:07;;;;;;;754.22;696.72;;;;;;;23.31;40.58;102090.88;693884;28;68947;-56
2022/08/09 01:44:29;;;;;;;759.72;702.13;;;;;;;23.32;40.39;102087.88;694838;28;22184;-55
2022/08/09 01:44:53;;;;;;;750.37;692.90;;;;;;;23.32;40.31;102087.00;694276;28;69433;-53